createdAt,value
2018-10-05T00:00:12.437Z,9.49
2018-10-05T00:02:39.766Z,9.32
2018-10-05T00:05:07.246Z,9.27
2018-10-05T00:07:34.570Z,9.18
2018-10-05T00:10:01.893Z,9.23
2018-10-05T00:12:29.218Z,9.36
2018-10-05T00:14:57.403Z,9.34
2018-10-05T00:17:24.929Z,9.33
2018-10-05T00:19:52.185Z,9.36
2018-10-05T00:22:19.421Z,9.40
2018-10-05T00:24:46.758Z,9.46
2018-10-05T00:27:14.127Z,9.50
2018-10-05T00:29:41.403Z,9.54
2018-10-05T00:32:08.803Z,9.49
2018-10-05T00:34:36.177Z,9.42
2018-10-05T00:37:03.558Z,9.39
2018-10-05T00:39:31.045Z,9.37
2018-10-05T00:41:58.499Z,9.36
2018-10-05T00:44:25.992Z,9.25
2018-10-05T00:46:53.452Z,9.36
2018-10-05T00:49:20.887Z,9.46
2018-10-05T00:51:48.229Z,9.47
2018-10-05T00:54:15.586Z,9.57
2018-10-05T00:56:42.957Z,9.69
2018-10-05T00:59:10.356Z,9.85
2018-10-05T01:01:37.723Z,9.83
2018-10-05T01:04:05.070Z,9.92
2018-10-05T01:06:32.354Z,9.93
2018-10-05T01:08:59.677Z,9.93
2018-10-05T01:12:51.476Z,9.87
2018-10-05T01:15:18.843Z,9.84
2018-10-05T01:17:46.213Z,9.81
2018-10-05T01:20:13.640Z,9.94
2018-10-05T01:22:40.864Z,9.95
2018-10-05T01:25:08.103Z,9.97
2018-10-05T01:27:35.428Z,9.89
2018-10-05T01:30:02.699Z,9.69
2018-10-05T01:32:30.009Z,9.47
2018-10-05T01:34:57.416Z,9.36
2018-10-05T01:37:24.607Z,9.09
2018-10-05T01:39:51.902Z,8.94
2018-10-05T01:42:19.201Z,8.80
2018-10-05T01:44:46.536Z,8.87
2018-10-05T01:47:13.814Z,8.91
2018-10-05T01:49:41.141Z,8.91
2018-10-05T01:52:08.362Z,8.87
2018-10-05T01:54:35.677Z,8.93
2018-10-05T01:57:02.970Z,8.93
2018-10-05T01:59:30.222Z,8.94
2018-10-05T02:01:57.431Z,8.99
2018-10-05T02:04:24.785Z,9.05
2018-10-05T02:06:52.000Z,8.95
2018-10-05T02:09:19.338Z,8.87
2018-10-05T02:11:46.570Z,8.70
2018-10-05T02:14:13.814Z,8.66
2018-10-05T02:16:41.070Z,8.54
2018-10-05T02:19:08.376Z,8.56
2018-10-05T02:21:35.665Z,8.57
2018-10-05T02:24:02.970Z,8.58
2018-10-05T02:26:30.286Z,8.64
2018-10-05T02:28:57.577Z,8.62
2018-10-05T02:31:24.924Z,8.60
2018-10-05T02:33:52.233Z,8.59
2018-10-05T02:36:19.643Z,8.50
2018-10-05T02:38:47.013Z,8.12
2018-10-05T02:41:14.304Z,8.08
2018-10-05T02:43:41.654Z,8.15
2018-10-05T02:46:09.030Z,8.27
2018-10-05T02:48:36.365Z,8.33
2018-10-05T02:51:03.899Z,8.35
2018-10-05T02:53:31.257Z,8.38
2018-10-05T02:55:58.753Z,8.25
2018-10-05T02:58:26.137Z,8.20
2018-10-05T03:01:04.619Z,8.14
2018-10-05T03:03:31.990Z,8.10
2018-10-05T03:05:59.258Z,8.04
2018-10-05T03:08:26.540Z,7.97
2018-10-05T03:10:53.897Z,7.95
2018-10-05T03:13:21.196Z,8.02
2018-10-05T03:15:48.512Z,7.98
2018-10-05T03:18:15.755Z,8.00
2018-10-05T03:20:43.041Z,7.94
2018-10-05T03:23:10.446Z,8.02
2018-10-05T03:25:37.810Z,8.01
2018-10-05T03:28:05.082Z,7.95
2018-10-05T03:30:32.395Z,7.86
2018-10-05T03:32:59.693Z,7.82
2018-10-05T03:35:27.099Z,7.79
2018-10-05T03:37:54.354Z,7.88
2018-10-05T03:40:21.699Z,7.91
2018-10-05T03:42:49.046Z,7.86
2018-10-05T03:45:16.420Z,7.74
2018-10-05T03:47:43.725Z,7.66
2018-10-05T03:50:11.025Z,7.77
2018-10-05T03:52:38.495Z,7.75
2018-10-05T03:55:05.856Z,7.58
2018-10-05T03:57:33.262Z,7.48
2018-10-05T04:00:01.023Z,7.55
2018-10-05T04:02:28.326Z,7.52
2018-10-05T04:04:55.631Z,7.50
2018-10-05T04:07:22.936Z,7.47
2018-10-05T04:09:50.359Z,7.49
2018-10-05T04:12:17.663Z,7.42
2018-10-05T04:14:44.902Z,7.35
2018-10-05T04:17:12.195Z,7.42
2018-10-05T04:19:39.513Z,7.45
2018-10-05T04:22:06.752Z,7.40
2018-10-05T04:24:33.994Z,7.32
2018-10-05T04:27:01.301Z,7.36
2018-10-05T04:29:28.523Z,7.26
2018-10-05T04:31:55.822Z,7.12
2018-10-05T04:34:23.118Z,7.16
2018-10-05T04:36:50.414Z,7.08
2018-10-05T04:39:17.786Z,7.22
2018-10-05T04:41:45.079Z,7.35
2018-10-05T04:44:12.417Z,7.39
2018-10-05T04:46:39.795Z,7.44
2018-10-05T04:49:07.144Z,7.54
2018-10-05T04:51:34.492Z,7.56
2018-10-05T04:54:01.822Z,7.65
2018-10-05T04:56:29.143Z,7.68
2018-10-05T04:58:56.417Z,7.75
2018-10-05T05:01:23.806Z,7.79
2018-10-05T05:03:51.110Z,7.74
2018-10-05T05:06:18.526Z,7.83
2018-10-05T05:08:45.790Z,7.77
2018-10-05T05:11:13.159Z,7.72
2018-10-05T05:13:40.540Z,7.75
2018-10-05T05:16:07.919Z,7.70
2018-10-05T05:18:35.297Z,7.78
2018-10-05T05:21:02.611Z,7.83
2018-10-05T05:23:29.880Z,7.82
2018-10-05T05:25:57.248Z,7.62
2018-10-05T05:28:24.523Z,7.62
2018-10-05T05:30:51.824Z,7.59
2018-10-05T05:33:19.248Z,7.56
2018-10-05T05:35:46.514Z,7.59
2018-10-05T05:38:13.792Z,7.60
2018-10-05T05:40:41.062Z,7.36
2018-10-05T05:43:08.370Z,7.34
2018-10-05T05:45:35.725Z,7.30
2018-10-05T05:48:03.015Z,7.25
2018-10-05T05:50:30.296Z,7.27
2018-10-05T05:52:57.536Z,7.42
2018-10-05T05:55:24.802Z,7.52
2018-10-05T05:57:52.124Z,7.63
2018-10-05T06:00:19.399Z,7.73
2018-10-05T06:02:46.659Z,7.80
2018-10-05T06:05:13.965Z,7.88
2018-10-05T06:07:41.242Z,7.95
2018-10-05T06:10:08.495Z,8.09
2018-10-05T06:12:35.769Z,8.07
2018-10-05T06:15:03.118Z,8.04
2018-10-05T06:17:30.407Z,8.04
2018-10-05T06:19:57.688Z,7.98
2018-10-05T06:22:25.397Z,7.90
2018-10-05T06:24:52.430Z,8.01
2018-10-05T06:32:05.714Z,8.74
2018-10-05T06:34:33.088Z,9.04
2018-10-05T06:37:00.329Z,9.31
2018-10-05T06:39:27.638Z,9.43
2018-10-05T06:41:54.976Z,9.80
2018-10-05T06:44:22.332Z,10.19
2018-10-05T06:46:49.611Z,10.48
2018-10-05T06:49:16.982Z,10.91
2018-10-05T06:51:44.233Z,11.52
2018-10-05T06:54:11.516Z,12.30
2018-10-05T06:56:38.835Z,13.15
2018-10-05T06:59:06.252Z,14.10
2018-10-05T07:01:33.622Z,14.97
2018-10-05T07:04:00.939Z,15.84
2018-10-05T07:06:28.239Z,16.88
2018-10-05T07:08:55.540Z,17.53
2018-10-05T07:11:22.914Z,17.96
2018-10-05T07:13:50.213Z,18.54
2018-10-05T07:16:17.572Z,19.01
2018-10-05T07:18:44.866Z,19.41
2018-10-05T07:21:12.263Z,19.70
2018-10-05T07:23:39.521Z,20.51
2018-10-05T07:26:06.997Z,20.86
2018-10-05T07:28:34.499Z,21.03
2018-10-05T07:31:01.596Z,21.12
2018-10-05T07:33:28.972Z,21.38
2018-10-05T07:35:57.048Z,21.45
2018-10-05T07:38:24.443Z,22.09
2018-10-05T07:40:51.758Z,22.43
2018-10-05T07:43:19.404Z,22.63
2018-10-05T07:45:46.695Z,22.59
2018-10-05T07:48:13.963Z,22.66
2018-10-05T07:50:41.301Z,22.78
2018-10-05T07:53:08.712Z,22.86
2018-10-05T07:55:36.015Z,22.95
2018-10-05T07:58:03.458Z,22.14
2018-10-05T08:00:30.775Z,22.76
2018-10-05T08:02:58.110Z,22.71
2018-10-05T08:05:25.415Z,22.59
2018-10-05T08:07:52.773Z,22.94
2018-10-05T08:10:20.117Z,22.67
2018-10-05T08:12:47.346Z,22.69
2018-10-05T08:15:14.624Z,22.58
2018-10-05T08:17:41.878Z,23.25
2018-10-05T08:20:09.207Z,23.44
2018-10-05T08:22:36.406Z,22.48
2018-10-05T08:25:03.868Z,22.79
2018-10-05T08:27:31.230Z,22.48
2018-10-05T08:29:58.646Z,21.81
2018-10-05T08:32:26.049Z,22.20
2018-10-05T08:34:53.288Z,22.25
2018-10-05T08:37:20.640Z,22.27
2018-10-05T08:39:47.921Z,21.84
2018-10-05T08:42:15.287Z,21.31
2018-10-05T08:44:42.576Z,21.13
2018-10-05T08:47:09.912Z,21.24
2018-10-05T08:49:37.226Z,21.62
2018-10-05T08:52:04.549Z,21.93
2018-10-05T08:54:31.820Z,22.54
2018-10-05T08:56:59.166Z,22.28
2018-10-05T08:59:26.498Z,22.59
2018-10-05T09:01:53.798Z,22.57
2018-10-05T09:04:21.032Z,21.83
2018-10-05T09:06:48.289Z,21.83
2018-10-05T09:09:15.662Z,21.86
2018-10-05T09:11:42.877Z,21.88
2018-10-05T09:14:10.216Z,21.68
2018-10-05T09:16:37.628Z,22.28
2018-10-05T09:19:04.973Z,22.14
2018-10-05T09:21:32.791Z,21.25
2018-10-05T09:24:00.098Z,21.96
2018-10-05T09:26:27.388Z,22.26
2018-10-05T09:28:54.641Z,22.45
2018-10-05T09:31:21.914Z,22.58
2018-10-05T09:33:49.239Z,23.01
2018-10-05T09:36:16.644Z,23.51
2018-10-05T09:38:44.851Z,23.56
2018-10-05T09:41:12.336Z,24.05
2018-10-05T09:43:39.629Z,24.33
2018-10-05T09:46:07.035Z,24.46
2018-10-05T09:48:34.400Z,24.32
2018-10-05T09:51:01.787Z,24.75
2018-10-05T09:53:29.236Z,24.91
2018-10-05T09:55:57.339Z,25.68
2018-10-05T09:58:24.637Z,26.48
2018-10-05T10:00:57.592Z,26.89
2018-10-05T10:03:29.416Z,26.94
2018-10-05T10:05:56.630Z,26.93
2018-10-05T10:08:24.020Z,27.14
2018-10-05T10:10:51.329Z,27.51
2018-10-05T10:13:18.608Z,27.62
2018-10-05T10:15:45.831Z,27.94
2018-10-05T10:18:13.249Z,27.55
2018-10-05T10:20:40.796Z,28.40
2018-10-05T10:23:08.184Z,28.50
2018-10-05T10:25:35.508Z,27.37
2018-10-05T10:28:02.987Z,26.60
2018-10-05T10:30:30.305Z,26.43
2018-10-05T10:32:57.586Z,26.96
2018-10-05T10:35:24.880Z,27.27
2018-10-05T10:37:52.191Z,27.04
2018-10-05T10:40:19.582Z,27.32
2018-10-05T10:42:47.014Z,27.53
2018-10-05T10:45:14.307Z,27.50
2018-10-05T10:47:41.860Z,27.77
2018-10-05T10:50:09.162Z,26.82
2018-10-05T10:52:36.500Z,26.59
2018-10-05T10:55:04.379Z,27.44
2018-10-05T10:57:31.897Z,28.25
2018-10-05T11:00:02.330Z,29.11
2018-10-05T11:02:29.868Z,28.57
2018-10-05T11:04:57.341Z,27.87
2018-10-05T11:07:24.619Z,27.15
2018-10-05T11:09:51.876Z,28.03
2018-10-05T11:12:19.142Z,27.46
2018-10-05T11:14:46.458Z,27.60
2018-10-05T11:17:14.397Z,27.76
2018-10-05T11:19:41.966Z,28.44
2018-10-05T11:22:09.261Z,28.49
2018-10-05T11:24:36.604Z,29.26
2018-10-05T11:27:03.929Z,30.26
2018-10-05T11:29:31.313Z,30.31
2018-10-05T11:31:58.569Z,29.36
2018-10-05T11:34:25.904Z,29.49
2018-10-05T11:36:53.190Z,30.26
2018-10-05T11:39:20.581Z,30.88
2018-10-05T11:41:47.965Z,31.07
2018-10-05T11:44:15.202Z,31.03
2018-10-05T11:46:43.281Z,30.39
2018-10-05T11:49:10.608Z,29.81
2018-10-05T11:51:37.998Z,29.67
2018-10-05T11:54:05.322Z,29.78
2018-10-05T11:56:32.747Z,29.62
2018-10-05T11:59:00.063Z,29.89
2018-10-05T12:01:27.306Z,29.54
2018-10-05T12:03:54.575Z,28.76
2018-10-05T12:06:21.860Z,28.39
2018-10-05T12:08:49.253Z,28.03
2018-10-05T12:11:16.587Z,27.12
2018-10-05T12:13:43.962Z,27.88
2018-10-05T12:16:11.277Z,27.62
2018-10-05T12:18:38.545Z,28.61
2018-10-05T12:21:05.880Z,28.76
2018-10-05T12:23:33.268Z,28.81
2018-10-05T12:26:00.652Z,29.24
2018-10-05T12:28:27.986Z,29.17
2018-10-05T12:30:55.372Z,29.48
2018-10-05T12:33:22.752Z,28.75
2018-10-05T12:35:50.122Z,28.33
2018-10-05T12:38:17.424Z,27.93
2018-10-05T12:40:44.616Z,27.64
2018-10-05T12:43:12.054Z,26.33
2018-10-05T12:45:39.350Z,26.71
2018-10-05T12:48:06.654Z,27.49
2018-10-05T12:50:34.072Z,28.10
2018-10-05T12:53:01.390Z,27.79
2018-10-05T12:55:28.807Z,27.76
2018-10-05T12:57:56.101Z,28.65
2018-10-05T13:00:23.748Z,29.42
2018-10-05T13:02:51.077Z,29.87
2018-10-05T13:05:18.426Z,29.10
2018-10-05T13:07:45.697Z,28.74
2018-10-05T13:10:13.121Z,29.49
2018-10-05T13:12:40.497Z,29.78
2018-10-05T13:15:07.926Z,28.74
2018-10-05T13:17:35.383Z,27.81
2018-10-05T13:20:03.250Z,27.57
2018-10-05T13:22:49.121Z,27.63
2018-10-05T13:25:16.383Z,29.30
2018-10-05T13:27:43.708Z,28.74
2018-10-05T13:30:11.022Z,27.60
2018-10-05T13:32:38.510Z,27.97
2018-10-05T13:35:05.818Z,28.71
2018-10-05T13:37:33.170Z,29.78
2018-10-05T13:40:00.530Z,29.11
2018-10-05T13:42:27.950Z,28.46
2018-10-05T13:44:55.316Z,28.05
2018-10-05T13:47:22.692Z,29.01
2018-10-05T13:49:50.098Z,29.88
2018-10-05T13:52:17.408Z,29.26
2018-10-05T13:54:44.740Z,28.61
2018-10-05T13:57:12.055Z,29.21
2018-10-05T13:59:39.478Z,29.57
2018-10-05T14:02:06.716Z,29.46
2018-10-05T14:04:33.938Z,29.57
2018-10-05T14:07:01.226Z,30.03
2018-10-05T14:09:28.556Z,30.49
2018-10-05T14:11:55.922Z,30.91
2018-10-05T14:14:23.356Z,30.33
2018-10-05T14:16:50.632Z,29.16
2018-10-05T14:19:17.985Z,29.51
2018-10-05T14:21:45.400Z,30.25
2018-10-05T14:24:12.635Z,30.52
2018-10-05T14:26:40.016Z,30.80
2018-10-05T14:29:07.365Z,29.95
2018-10-05T14:31:34.641Z,28.87
2018-10-05T14:34:01.990Z,28.66
2018-10-05T14:36:29.885Z,28.96
2018-10-05T14:38:57.315Z,29.67
2018-10-05T14:41:24.670Z,30.23
2018-10-05T14:43:52.033Z,30.59
2018-10-05T14:46:19.455Z,30.43
2018-10-05T14:48:46.760Z,30.11
2018-10-05T14:51:14.137Z,30.05
2018-10-05T14:53:41.483Z,30.34
2018-10-05T14:56:09.138Z,30.69
2018-10-05T14:58:36.424Z,30.94
2018-10-05T15:02:33.285Z,31.06
2018-10-05T15:05:00.544Z,31.24
2018-10-05T15:07:27.965Z,31.42
2018-10-05T15:09:55.480Z,30.63
2018-10-05T15:12:22.809Z,30.73
2018-10-05T15:14:50.146Z,31.03
2018-10-05T15:17:17.467Z,31.23
2018-10-05T15:19:44.718Z,30.33
2018-10-05T15:22:12.083Z,30.38
2018-10-05T15:24:39.633Z,30.82
2018-10-05T15:27:07.179Z,31.17
2018-10-05T15:29:34.488Z,31.40
2018-10-05T15:32:02.199Z,31.26
2018-10-05T15:34:29.510Z,31.18
2018-10-05T15:36:56.845Z,31.23
2018-10-05T15:39:24.153Z,31.19
2018-10-05T15:41:51.448Z,30.99
2018-10-05T15:44:19.608Z,30.95
2018-10-05T15:47:04.696Z,30.71
2018-10-05T15:49:32.725Z,30.09
2018-10-05T15:52:00.214Z,29.69
2018-10-05T15:54:27.460Z,28.28
2018-10-05T15:56:54.786Z,28.32
2018-10-05T15:59:22.226Z,28.64
2018-10-05T16:01:49.500Z,28.86
2018-10-05T16:04:17.002Z,28.91
2018-10-05T16:06:44.412Z,28.83
2018-10-05T16:09:11.736Z,28.69
2018-10-05T16:11:39.084Z,28.50
2018-10-05T16:14:06.818Z,28.38
2018-10-05T16:16:34.243Z,28.06
2018-10-05T16:19:02.366Z,27.86
2018-10-05T16:21:29.726Z,27.60
2018-10-05T16:23:57.430Z,27.42
2018-10-05T16:26:25.027Z,27.11
2018-10-05T16:28:52.348Z,26.91
2018-10-05T16:31:19.691Z,26.50
2018-10-05T16:33:46.954Z,25.92
2018-10-05T16:36:14.368Z,25.48
2018-10-05T16:38:41.891Z,25.05
2018-10-05T16:41:09.161Z,24.75
2018-10-05T16:43:36.553Z,24.33
2018-10-05T16:46:03.855Z,23.83
2018-10-05T16:48:31.118Z,23.67
2018-10-05T16:50:58.590Z,23.36
2018-10-05T16:53:25.888Z,23.08
2018-10-05T16:55:53.202Z,22.88
2018-10-05T16:58:20.541Z,22.40
2018-10-05T17:00:47.860Z,22.21
2018-10-05T17:03:15.205Z,21.99
2018-10-05T17:05:42.928Z,21.82
2018-10-05T17:08:11.837Z,21.58
2018-10-05T17:10:39.262Z,21.39
2018-10-05T17:13:06.487Z,21.28
2018-10-05T17:15:33.807Z,21.21
2018-10-05T17:18:01.188Z,21.03
2018-10-05T17:20:28.548Z,20.76
2018-10-05T17:22:55.888Z,20.66
2018-10-05T17:25:23.120Z,20.56
2018-10-05T17:27:51.392Z,20.43
2018-10-05T17:30:18.646Z,20.28
2018-10-05T17:32:45.938Z,20.18
2018-10-05T17:35:13.308Z,20.15
2018-10-05T17:37:40.496Z,19.98
2018-10-05T17:40:08.191Z,19.86
2018-10-05T17:42:35.470Z,19.64
2018-10-05T17:45:02.808Z,19.53
2018-10-05T17:47:30.098Z,19.50
2018-10-05T17:49:57.448Z,19.39
2018-10-05T17:52:24.728Z,19.36
2018-10-05T17:54:52.877Z,19.22
2018-10-05T17:57:20.231Z,19.10
2018-10-05T17:59:47.477Z,18.99
2018-10-05T18:02:14.783Z,18.93
2018-10-05T18:04:42.097Z,18.87
2018-10-05T18:07:09.443Z,18.84
2018-10-05T18:09:36.711Z,18.72
2018-10-05T18:12:04.021Z,18.64
2018-10-05T18:14:32.020Z,18.56
2018-10-05T18:16:59.420Z,18.49
2018-10-05T18:19:26.636Z,18.39
2018-10-05T18:21:53.974Z,18.21
2018-10-05T18:24:21.300Z,18.13
2018-10-05T18:26:48.661Z,18.00
2018-10-05T18:29:16.066Z,17.85
2018-10-05T18:31:43.398Z,17.81
2018-10-05T18:34:10.695Z,17.70
2018-10-05T18:36:38.065Z,17.71
2018-10-05T18:39:07.262Z,17.63
2018-10-05T18:41:34.818Z,17.53
2018-10-05T18:44:02.159Z,17.46
2018-10-05T18:46:29.358Z,17.40
2018-10-05T18:48:56.678Z,17.43
2018-10-05T18:51:23.993Z,17.44
2018-10-05T18:53:51.391Z,17.41
2018-10-05T18:56:30.342Z,17.33
2018-10-05T18:58:57.667Z,17.30
2018-10-05T19:01:24.979Z,17.27
2018-10-05T19:03:52.312Z,17.23
2018-10-05T19:06:19.674Z,17.17
2018-10-05T19:08:47.031Z,17.09
2018-10-05T19:11:14.423Z,16.91
2018-10-05T19:13:41.772Z,16.67
2018-10-05T19:16:09.062Z,16.55
2018-10-05T19:18:36.424Z,16.54
2018-10-05T19:21:03.804Z,16.48
2018-10-05T19:23:31.120Z,16.45
2018-10-05T19:25:58.518Z,16.50
2018-10-05T19:28:25.807Z,16.39
2018-10-05T19:30:53.109Z,16.23
2018-10-05T19:33:20.707Z,16.03
2018-10-05T19:35:48.031Z,16.02
2018-10-05T19:38:15.399Z,15.94
2018-10-05T19:40:42.714Z,15.96
2018-10-05T19:43:10.030Z,15.94
2018-10-05T19:45:37.368Z,15.92
2018-10-05T19:48:04.678Z,15.96
2018-10-05T19:50:31.940Z,15.99
2018-10-05T19:52:59.331Z,16.04
2018-10-05T19:55:26.942Z,15.98
2018-10-05T19:57:54.413Z,16.09
2018-10-05T20:00:21.676Z,16.03
2018-10-05T20:02:48.932Z,15.90
2018-10-05T20:05:16.482Z,15.85
2018-10-05T20:07:43.892Z,15.87
2018-10-05T20:10:11.219Z,15.79
2018-10-05T20:12:38.529Z,15.60
2018-10-05T20:15:05.954Z,15.57
2018-10-05T20:17:33.333Z,15.57
2018-10-05T20:20:00.586Z,15.59
2018-10-05T20:22:27.883Z,15.62
2018-10-05T20:24:55.172Z,15.52
2018-10-05T20:27:22.467Z,15.39
2018-10-05T20:29:49.852Z,15.37
2018-10-05T20:32:17.287Z,15.42
2018-10-05T20:34:44.656Z,15.39
2018-10-05T20:37:12.248Z,15.34
2018-10-05T20:39:39.546Z,15.23
2018-10-05T20:42:06.908Z,15.26
2018-10-05T20:44:34.210Z,15.27
2018-10-05T20:47:01.444Z,15.31
2018-10-05T20:49:28.903Z,15.32
2018-10-05T20:51:56.202Z,15.28
2018-10-05T20:54:23.479Z,15.21
2018-10-05T20:56:50.812Z,15.12
2018-10-05T20:59:18.308Z,15.14
2018-10-05T21:01:45.615Z,15.17
2018-10-05T21:04:13.310Z,15.14
2018-10-05T21:06:40.708Z,15.15
2018-10-05T21:09:08.973Z,15.10
2018-10-05T21:11:36.316Z,15.15
2018-10-05T21:14:03.868Z,15.16
2018-10-05T21:16:31.174Z,15.12
2018-10-05T21:18:58.536Z,15.12
2018-10-05T21:21:26.529Z,15.07
2018-10-05T21:23:53.805Z,15.11
2018-10-05T21:26:21.071Z,15.12
2018-10-05T21:28:48.414Z,15.12
2018-10-05T21:31:15.666Z,15.02
2018-10-05T21:33:42.939Z,14.99
2018-10-05T21:36:10.343Z,14.95
2018-10-05T21:38:37.641Z,14.74
2018-10-05T21:41:05.007Z,14.63
2018-10-05T21:43:32.377Z,14.47
2018-10-05T21:45:59.716Z,14.44
2018-10-05T21:48:27.022Z,14.39
2018-10-05T21:50:54.295Z,14.34
2018-10-05T21:53:21.863Z,14.27
2018-10-05T21:55:49.176Z,14.30
2018-10-05T21:58:16.595Z,14.15
2018-10-05T22:00:43.910Z,14.03
2018-10-05T22:03:11.428Z,13.95
2018-10-05T22:05:38.958Z,14.00
2018-10-05T22:08:06.344Z,14.03
2018-10-05T22:10:33.697Z,14.08
2018-10-05T22:13:01.247Z,14.08
2018-10-05T22:15:28.530Z,14.05
2018-10-05T22:17:55.931Z,14.02
2018-10-05T22:20:23.496Z,14.00
2018-10-05T22:22:51.053Z,13.99
2018-10-05T22:25:18.488Z,13.94
2018-10-05T22:27:45.847Z,13.92
2018-10-05T22:30:13.087Z,13.89
2018-10-05T22:32:40.358Z,13.67
2018-10-05T22:35:07.690Z,13.46
2018-10-05T22:37:34.990Z,13.46
2018-10-05T22:40:02.306Z,13.47
2018-10-05T22:42:29.608Z,13.48
2018-10-05T22:44:56.908Z,13.42
2018-10-05T22:47:24.194Z,13.36
2018-10-05T22:49:51.485Z,13.38
2018-10-05T22:52:18.843Z,13.36
2018-10-05T22:54:46.075Z,13.33
2018-10-05T22:57:13.346Z,13.33
2018-10-05T22:59:40.628Z,13.30
2018-10-05T23:02:07.936Z,13.20
2018-10-05T23:04:35.273Z,13.08
2018-10-05T23:07:02.677Z,13.12
2018-10-05T23:09:29.955Z,13.16
2018-10-05T23:11:57.299Z,13.24
2018-10-05T23:14:24.629Z,13.24
2018-10-05T23:16:51.898Z,13.25
2018-10-05T23:19:19.246Z,13.24
2018-10-05T23:21:46.546Z,13.22
2018-10-05T23:24:13.837Z,13.21
2018-10-05T23:28:05.604Z,13.15
2018-10-05T23:30:32.953Z,12.92
2018-10-05T23:33:00.233Z,12.87
2018-10-05T23:35:27.536Z,12.86
2018-10-05T23:37:54.799Z,12.94
2018-10-05T23:40:22.086Z,12.98
2018-10-05T23:43:53.353Z,12.98
2018-10-05T23:46:20.656Z,13.04
2018-10-05T23:48:47.922Z,13.01
2018-10-05T23:51:15.280Z,12.91
2018-10-05T23:53:42.713Z,12.87
2018-10-05T23:56:09.971Z,12.86
2018-10-05T23:58:37.305Z,12.86
